sensor_id;sensor_type;location;lat;lon;timestamp;P1;durP1;ratioP1;P2;durP2;ratioP2
28627;SDS011;15815;46.760;19.604;2022-10-31T11:56:14;40.38;;;18.85;;
28627;SDS011;15815;46.760;19.604;2022-10-31T11:58:41;35.08;;;19.17;;
28627;SDS011;15815;46.760;19.604;2022-10-31T12:01:21;40.42;;;21.95;;
28627;SDS011;15815;46.760;19.604;2022-10-31T12:04:10;31.50;;;19.77;;
28627;SDS011;15815;46.760;19.604;2022-10-31T12:06:38;28.95;;;17.88;;
28627;SDS011;15815;46.760;19.604;2022-10-31T12:09:47;32.67;;;18.33;;
28627;SDS011;15815;46.760;19.604;2022-10-31T12:17:14;35.38;;;20.25;;
28627;SDS011;15815;46.760;19.604;2022-10-31T12:19:55;51.65;;;26.55;;
28627;SDS011;15815;46.760;19.604;2022-10-31T12:25:18;34.25;;;21.20;;
28627;SDS011;15815;46.760;19.604;2022-10-31T12:28:00;40.42;;;22.02;;
28627;SDS011;15815;46.760;19.604;2022-10-31T12:30:53;39.55;;;22.15;;
28627;SDS011;15815;46.760;19.604;2022-10-31T12:39:14;37.55;;;21.73;;
28627;SDS011;15815;46.760;19.604;2022-10-31T12:42:14;42.00;;;23.50;;
28627;SDS011;15815;46.760;19.604;2022-10-31T12:47:44;32.53;;;21.40;;
28627;SDS011;15815;46.760;19.604;2022-10-31T12:59:07;40.42;;;22.67;;
28627;SDS011;15815;46.760;19.604;2022-10-31T13:04:15;47.92;;;25.83;;
28627;SDS011;15815;46.760;19.604;2022-10-31T13:07:02;56.03;;;28.38;;
28627;SDS011;15815;46.760;19.604;2022-10-31T13:09:33;46.20;;;25.55;;
28627;SDS011;15815;46.760;19.604;2022-10-31T13:12:08;51.85;;;27.13;;
28627;SDS011;15815;46.760;19.604;2022-10-31T13:14:37;46.00;;;26.75;;
28627;SDS011;15815;46.760;19.604;2022-10-31T13:17:06;72.85;;;39.58;;
28627;SDS011;15815;46.760;19.604;2022-10-31T13:20:02;44.13;;;24.13;;
28627;SDS011;15815;46.760;19.604;2022-10-31T13:22:38;40.33;;;22.98;;
28627;SDS011;15815;46.760;19.604;2022-10-31T13:27:41;41.08;;;22.23;;
28627;SDS011;15815;46.760;19.604;2022-10-31T13:30:20;38.90;;;22.85;;
28627;SDS011;15815;46.760;19.604;2022-10-31T13:35:39;42.97;;;23.42;;
28627;SDS011;15815;46.760;19.604;2022-10-31T13:38:22;39.72;;;22.85;;
28627;SDS011;15815;46.760;19.604;2022-10-31T13:41:09;41.05;;;24.30;;
28627;SDS011;15815;46.760;19.604;2022-10-31T13:46:25;49.22;;;29.73;;
28627;SDS011;15815;46.760;19.604;2022-10-31T13:48:59;55.47;;;28.80;;
28627;SDS011;15815;46.760;19.604;2022-10-31T13:51:29;41.42;;;23.02;;
28627;SDS011;15815;46.760;19.604;2022-10-31T13:54:18;50.22;;;26.70;;
28627;SDS011;15815;46.760;19.604;2022-10-31T13:56:49;62.40;;;33.75;;
28627;SDS011;15815;46.760;19.604;2022-10-31T13:59:20;59.22;;;31.77;;
28627;SDS011;15815;46.760;19.604;2022-10-31T14:01:57;55.58;;;31.35;;
28627;SDS011;15815;46.760;19.604;2022-10-31T14:04:26;42.38;;;22.75;;
28627;SDS011;15815;46.760;19.604;2022-10-31T14:07:08;66.25;;;37.22;;
28627;SDS011;15815;46.760;19.604;2022-10-31T14:12:42;42.08;;;25.60;;
28627;SDS011;15815;46.760;19.604;2022-10-31T14:15:17;57.33;;;35.30;;
28627;SDS011;15815;46.760;19.604;2022-10-31T14:17:48;48.10;;;24.48;;
28627;SDS011;15815;46.760;19.604;2022-10-31T14:22:43;41.85;;;22.80;;
28627;SDS011;15815;46.760;19.604;2022-10-31T14:28:01;40.83;;;24.35;;
28627;SDS011;15815;46.760;19.604;2022-10-31T14:30:53;47.42;;;25.98;;
28627;SDS011;15815;46.760;19.604;2022-10-31T14:33:21;46.97;;;25.85;;
28627;SDS011;15815;46.760;19.604;2022-10-31T14:51:41;47.65;;;24.35;;
28627;SDS011;15815;46.760;19.604;2022-10-31T14:54:14;39.25;;;24.38;;
28627;SDS011;15815;46.760;19.604;2022-10-31T14:56:48;52.55;;;27.02;;
28627;SDS011;15815;46.760;19.604;2022-10-31T14:59:18;54.70;;;31.58;;
28627;SDS011;15815;46.760;19.604;2022-10-31T15:01:53;53.97;;;30.52;;
28627;SDS011;15815;46.760;19.604;2022-10-31T15:04:25;61.38;;;32.60;;
28627;SDS011;15815;46.760;19.604;2022-10-31T15:06:54;44.80;;;28.00;;
28627;SDS011;15815;46.760;19.604;2022-10-31T15:09:42;59.38;;;27.33;;
28627;SDS011;15815;46.760;19.604;2022-10-31T15:14:54;54.78;;;30.75;;
28627;SDS011;15815;46.760;19.604;2022-10-31T15:17:20;60.25;;;31.92;;
28627;SDS011;15815;46.760;19.604;2022-10-31T15:19:47;67.13;;;35.92;;
28627;SDS011;15815;46.760;19.604;2022-10-31T15:22:15;53.65;;;31.35;;
28627;SDS011;15815;46.760;19.604;2022-10-31T15:24:42;51.03;;;29.48;;
28627;SDS011;15815;46.760;19.604;2022-10-31T15:27:12;57.83;;;32.90;;
28627;SDS011;15815;46.760;19.604;2022-10-31T15:29:50;59.75;;;35.00;;
28627;SDS011;15815;46.760;19.604;2022-10-31T15:34:49;49.20;;;27.67;;
28627;SDS011;15815;46.760;19.604;2022-10-31T15:37:20;52.85;;;28.73;;
28627;SDS011;15815;46.760;19.604;2022-10-31T15:39:49;49.90;;;27.88;;
28627;SDS011;15815;46.760;19.604;2022-10-31T15:42:22;222.75;;;74.38;;
28627;SDS011;15815;46.760;19.604;2022-10-31T15:44:53;66.55;;;35.45;;
28627;SDS011;15815;46.760;19.604;2022-10-31T15:47:54;75.78;;;40.90;;
28627;SDS011;15815;46.760;19.604;2022-10-31T15:51:07;58.17;;;32.37;;
28627;SDS011;15815;46.760;19.604;2022-10-31T15:53:17;63.00;;;33.83;;
28627;SDS011;15815;46.760;19.604;2022-10-31T15:55:48;56.80;;;32.38;;
28627;SDS011;15815;46.760;19.604;2022-10-31T15:58:18;62.63;;;34.70;;
28627;SDS011;15815;46.760;19.604;2022-10-31T16:00:43;60.13;;;34.13;;
28627;SDS011;15815;46.760;19.604;2022-10-31T16:05:44;67.00;;;34.55;;
28627;SDS011;15815;46.760;19.604;2022-10-31T16:10:49;69.88;;;36.40;;
28627;SDS011;15815;46.760;19.604;2022-10-31T16:13:14;83.10;;;41.75;;
28627;SDS011;15815;46.760;19.604;2022-10-31T16:15:51;87.90;;;46.35;;
28627;SDS011;15815;46.760;19.604;2022-10-31T16:18:21;65.15;;;35.28;;
28627;SDS011;15815;46.760;19.604;2022-10-31T16:20:48;58.70;;;34.75;;
28627;SDS011;15815;46.760;19.604;2022-10-31T16:23:17;52.55;;;34.08;;
28627;SDS011;15815;46.760;19.604;2022-10-31T16:25:43;61.65;;;37.67;;
28627;SDS011;15815;46.760;19.604;2022-10-31T16:28:19;79.95;;;41.90;;
28627;SDS011;15815;46.760;19.604;2022-10-31T16:30:49;64.07;;;34.80;;
28627;SDS011;15815;46.760;19.604;2022-10-31T16:33:23;55.28;;;30.42;;
28627;SDS011;15815;46.760;19.604;2022-10-31T16:35:51;57.60;;;32.63;;
28627;SDS011;15815;46.760;19.604;2022-10-31T16:38:17;51.65;;;30.75;;
28627;SDS011;15815;46.760;19.604;2022-10-31T16:40:43;50.65;;;30.95;;
28627;SDS011;15815;46.760;19.604;2022-10-31T16:43:13;54.35;;;31.02;;
28627;SDS011;15815;46.760;19.604;2022-10-31T16:45:43;53.90;;;29.67;;
28627;SDS011;15815;46.760;19.604;2022-10-31T16:48:11;53.92;;;30.27;;
28627;SDS011;15815;46.760;19.604;2022-10-31T16:50:39;50.40;;;30.33;;
28627;SDS011;15815;46.760;19.604;2022-10-31T16:53:05;60.50;;;33.00;;
28627;SDS011;15815;46.760;19.604;2022-10-31T16:55:31;66.10;;;37.40;;
28627;SDS011;15815;46.760;19.604;2022-10-31T16:58:00;63.80;;;35.33;;
28627;SDS011;15815;46.760;19.604;2022-10-31T17:00:26;58.17;;;32.38;;
28627;SDS011;15815;46.760;19.604;2022-10-31T17:02:54;53.47;;;31.10;;
28627;SDS011;15815;46.760;19.604;2022-10-31T17:05:24;69.03;;;37.20;;
28627;SDS011;15815;46.760;19.604;2022-10-31T17:07:54;66.93;;;34.85;;
28627;SDS011;15815;46.760;19.604;2022-10-31T17:10:20;57.40;;;32.85;;
28627;SDS011;15815;46.760;19.604;2022-10-31T17:12:46;68.43;;;36.65;;
28627;SDS011;15815;46.760;19.604;2022-10-31T17:15:14;82.57;;;42.13;;
28627;SDS011;15815;46.760;19.604;2022-10-31T17:17:42;72.55;;;40.88;;
28627;SDS011;15815;46.760;19.604;2022-10-31T17:20:12;90.47;;;47.10;;
28627;SDS011;15815;46.760;19.604;2022-10-31T17:22:47;89.13;;;50.13;;
28627;SDS011;15815;46.760;19.604;2022-10-31T17:25:14;82.20;;;41.22;;
28627;SDS011;15815;46.760;19.604;2022-10-31T17:27:41;77.32;;;41.50;;
28627;SDS011;15815;46.760;19.604;2022-10-31T17:30:07;78.88;;;38.42;;
28627;SDS011;15815;46.760;19.604;2022-10-31T17:32:35;74.40;;;39.15;;
28627;SDS011;15815;46.760;19.604;2022-10-31T17:35:00;78.03;;;36.33;;
28627;SDS011;15815;46.760;19.604;2022-10-31T17:37:25;81.25;;;38.75;;
28627;SDS011;15815;46.760;19.604;2022-10-31T17:39:51;83.20;;;38.00;;
28627;SDS011;15815;46.760;19.604;2022-10-31T17:42:16;79.22;;;40.15;;
28627;SDS011;15815;46.760;19.604;2022-10-31T17:44:41;79.82;;;37.33;;
28627;SDS011;15815;46.760;19.604;2022-10-31T17:47:07;92.03;;;39.42;;
28627;SDS011;15815;46.760;19.604;2022-10-31T17:49:32;91.05;;;37.85;;
28627;SDS011;15815;46.760;19.604;2022-10-31T17:51:57;93.35;;;42.80;;
28627;SDS011;15815;46.760;19.604;2022-10-31T17:54:23;91.75;;;40.70;;
28627;SDS011;15815;46.760;19.604;2022-10-31T17:56:48;92.68;;;42.42;;
28627;SDS011;15815;46.760;19.604;2022-10-31T17:59:13;102.00;;;41.05;;
28627;SDS011;15815;46.760;19.604;2022-10-31T18:01:38;102.30;;;45.22;;
28627;SDS011;15815;46.760;19.604;2022-10-31T18:04:04;114.25;;;48.85;;
28627;SDS011;15815;46.760;19.604;2022-10-31T18:06:29;113.75;;;50.88;;
28627;SDS011;15815;46.760;19.604;2022-10-31T18:09:00;102.82;;;46.83;;
28627;SDS011;15815;46.760;19.604;2022-10-31T18:11:27;97.00;;;44.05;;
28627;SDS011;15815;46.760;19.604;2022-10-31T18:13:53;99.85;;;45.10;;
28627;SDS011;15815;46.760;19.604;2022-10-31T18:16:20;97.80;;;43.53;;
28627;SDS011;15815;46.760;19.604;2022-10-31T18:18:52;115.55;;;45.03;;
28627;SDS011;15815;46.760;19.604;2022-10-31T18:21:22;116.22;;;48.95;;
28627;SDS011;15815;46.760;19.604;2022-10-31T18:23:51;113.45;;;47.63;;
28627;SDS011;15815;46.760;19.604;2022-10-31T18:26:18;115.53;;;51.00;;
28627;SDS011;15815;46.760;19.604;2022-10-31T18:28:43;129.23;;;57.22;;
28627;SDS011;15815;46.760;19.604;2022-10-31T18:31:09;132.85;;;54.60;;
28627;SDS011;15815;46.760;19.604;2022-10-31T18:33:34;117.93;;;49.83;;
28627;SDS011;15815;46.760;19.604;2022-10-31T18:36:05;120.43;;;50.90;;
28627;SDS011;15815;46.760;19.604;2022-10-31T18:38:30;121.00;;;52.30;;
28627;SDS011;15815;46.760;19.604;2022-10-31T18:40:56;114.65;;;50.65;;
28627;SDS011;15815;46.760;19.604;2022-10-31T18:43:21;121.13;;;50.38;;
28627;SDS011;15815;46.760;19.604;2022-10-31T18:45:46;130.25;;;52.85;;
28627;SDS011;15815;46.760;19.604;2022-10-31T18:48:15;133.52;;;51.70;;
28627;SDS011;15815;46.760;19.604;2022-10-31T18:50:41;129.48;;;52.60;;
28627;SDS011;15815;46.760;19.604;2022-10-31T18:53:07;129.80;;;52.40;;
28627;SDS011;15815;46.760;19.604;2022-10-31T18:55:32;133.68;;;53.65;;
28627;SDS011;15815;46.760;19.604;2022-10-31T18:57:57;134.40;;;54.45;;
28627;SDS011;15815;46.760;19.604;2022-10-31T19:00:23;135.93;;;54.25;;
28627;SDS011;15815;46.760;19.604;2022-10-31T19:02:48;126.53;;;53.28;;
28627;SDS011;15815;46.760;19.604;2022-10-31T19:05:13;143.93;;;57.17;;
28627;SDS011;15815;46.760;19.604;2022-10-31T19:07:39;123.97;;;50.38;;
28627;SDS011;15815;46.760;19.604;2022-10-31T19:10:04;121.82;;;51.95;;
28627;SDS011;15815;46.760;19.604;2022-10-31T19:12:31;118.53;;;51.47;;
28627;SDS011;15815;46.760;19.604;2022-10-31T19:14:57;112.72;;;49.45;;
28627;SDS011;15815;46.760;19.604;2022-10-31T19:17:23;104.55;;;45.55;;
28627;SDS011;15815;46.760;19.604;2022-10-31T19:19:49;108.88;;;45.58;;
28627;SDS011;15815;46.760;19.604;2022-10-31T19:22:14;107.43;;;45.08;;
28627;SDS011;15815;46.760;19.604;2022-10-31T19:24:43;96.20;;;42.33;;
28627;SDS011;15815;46.760;19.604;2022-10-31T19:27:08;93.55;;;42.22;;
28627;SDS011;15815;46.760;19.604;2022-10-31T19:29:34;99.40;;;42.25;;
28627;SDS011;15815;46.760;19.604;2022-10-31T19:31:59;99.85;;;43.45;;
28627;SDS011;15815;46.760;19.604;2022-10-31T19:34:25;100.25;;;41.88;;
28627;SDS011;15815;46.760;19.604;2022-10-31T19:36:51;105.68;;;45.17;;
28627;SDS011;15815;46.760;19.604;2022-10-31T19:39:16;107.97;;;44.25;;
28627;SDS011;15815;46.760;19.604;2022-10-31T19:41:41;92.55;;;41.25;;
28627;SDS011;15815;46.760;19.604;2022-10-31T19:44:07;106.40;;;44.08;;
28627;SDS011;15815;46.760;19.604;2022-10-31T19:46:33;114.72;;;44.67;;
28627;SDS011;15815;46.760;19.604;2022-10-31T19:48:58;110.88;;;44.88;;
28627;SDS011;15815;46.760;19.604;2022-10-31T19:51:25;110.20;;;47.30;;
28627;SDS011;15815;46.760;19.604;2022-10-31T19:53:50;113.95;;;49.75;;
28627;SDS011;15815;46.760;19.604;2022-10-31T19:56:18;113.05;;;47.97;;
28627;SDS011;15815;46.760;19.604;2022-10-31T19:58:45;114.03;;;47.30;;
28627;SDS011;15815;46.760;19.604;2022-10-31T20:01:12;136.38;;;49.10;;
28627;SDS011;15815;46.760;19.604;2022-10-31T20:03:40;120.22;;;46.83;;
28627;SDS011;15815;46.760;19.604;2022-10-31T20:06:08;101.97;;;42.30;;
28627;SDS011;15815;46.760;19.604;2022-10-31T20:08:40;99.35;;;42.72;;
28627;SDS011;15815;46.760;19.604;2022-10-31T20:11:05;94.68;;;40.22;;
28627;SDS011;15815;46.760;19.604;2022-10-31T20:13:32;102.30;;;41.20;;
28627;SDS011;15815;46.760;19.604;2022-10-31T20:15:59;92.13;;;38.58;;
28627;SDS011;15815;46.760;19.604;2022-10-31T20:18:31;93.15;;;38.75;;
28627;SDS011;15815;46.760;19.604;2022-10-31T20:21:00;106.28;;;39.90;;
28627;SDS011;15815;46.760;19.604;2022-10-31T20:23:27;96.67;;;40.03;;
28627;SDS011;15815;46.760;19.604;2022-10-31T20:25:52;99.95;;;39.10;;
28627;SDS011;15815;46.760;19.604;2022-10-31T20:28:17;90.60;;;37.95;;
28627;SDS011;15815;46.760;19.604;2022-10-31T20:30:43;96.47;;;39.10;;
28627;SDS011;15815;46.760;19.604;2022-10-31T20:33:09;107.68;;;40.50;;
28627;SDS011;15815;46.760;19.604;2022-10-31T20:35:35;99.72;;;40.28;;
28627;SDS011;15815;46.760;19.604;2022-10-31T20:38:02;106.15;;;40.90;;
28627;SDS011;15815;46.760;19.604;2022-10-31T20:40:29;98.57;;;40.75;;
28627;SDS011;15815;46.760;19.604;2022-10-31T20:42:55;111.20;;;40.67;;
28627;SDS011;15815;46.760;19.604;2022-10-31T20:45:21;117.82;;;41.92;;
28627;SDS011;15815;46.760;19.604;2022-10-31T20:47:46;109.50;;;41.72;;
28627;SDS011;15815;46.760;19.604;2022-10-31T20:50:12;106.07;;;42.45;;
28627;SDS011;15815;46.760;19.604;2022-10-31T20:52:37;98.05;;;36.90;;
28627;SDS011;15815;46.760;19.604;2022-10-31T20:55:04;100.55;;;38.15;;
28627;SDS011;15815;46.760;19.604;2022-10-31T20:57:30;95.13;;;38.80;;
28627;SDS011;15815;46.760;19.604;2022-10-31T20:59:56;109.18;;;41.67;;
28627;SDS011;15815;46.760;19.604;2022-10-31T21:02:21;97.72;;;39.78;;
28627;SDS011;15815;46.760;19.604;2022-10-31T21:04:46;107.68;;;40.05;;
28627;SDS011;15815;46.760;19.604;2022-10-31T21:07:12;105.07;;;38.25;;
28627;SDS011;15815;46.760;19.604;2022-10-31T21:09:39;95.18;;;39.15;;
28627;SDS011;15815;46.760;19.604;2022-10-31T21:12:05;83.88;;;34.78;;
28627;SDS011;15815;46.760;19.604;2022-10-31T21:14:30;84.25;;;34.05;;
28627;SDS011;15815;46.760;19.604;2022-10-31T21:16:56;80.60;;;31.65;;
28627;SDS011;15815;46.760;19.604;2022-10-31T21:19:21;82.10;;;32.33;;
28627;SDS011;15815;46.760;19.604;2022-10-31T21:21:46;91.20;;;34.33;;
28627;SDS011;15815;46.760;19.604;2022-10-31T21:24:16;85.53;;;34.67;;
28627;SDS011;15815;46.760;19.604;2022-10-31T21:26:45;96.55;;;35.80;;
28627;SDS011;15815;46.760;19.604;2022-10-31T21:29:12;102.78;;;37.08;;
28627;SDS011;15815;46.760;19.604;2022-10-31T21:31:38;100.28;;;36.78;;
28627;SDS011;15815;46.760;19.604;2022-10-31T21:34:05;80.82;;;32.45;;
28627;SDS011;15815;46.760;19.604;2022-10-31T21:36:30;88.47;;;33.25;;
28627;SDS011;15815;46.760;19.604;2022-10-31T21:38:56;95.63;;;33.75;;
28627;SDS011;15815;46.760;19.604;2022-10-31T21:41:22;85.07;;;30.25;;
28627;SDS011;15815;46.760;19.604;2022-10-31T21:43:49;70.43;;;29.27;;
28627;SDS011;15815;46.760;19.604;2022-10-31T21:46:51;74.65;;;29.40;;
28627;SDS011;15815;46.760;19.604;2022-10-31T21:49:12;76.95;;;31.75;;
28627;SDS011;15815;46.760;19.604;2022-10-31T21:51:37;69.38;;;30.20;;
28627;SDS011;15815;46.760;19.604;2022-10-31T21:54:02;62.45;;;28.20;;
28627;SDS011;15815;46.760;19.604;2022-10-31T21:56:47;65.72;;;28.83;;
28627;SDS011;15815;46.760;19.604;2022-10-31T21:59:12;66.43;;;28.40;;
28627;SDS011;15815;46.760;19.604;2022-10-31T22:01:38;65.70;;;27.45;;
28627;SDS011;15815;46.760;19.604;2022-10-31T22:04:03;68.65;;;28.15;;
28627;SDS011;15815;46.760;19.604;2022-10-31T22:06:30;77.32;;;31.17;;
28627;SDS011;15815;46.760;19.604;2022-10-31T22:08:59;70.72;;;28.02;;
28627;SDS011;15815;46.760;19.604;2022-10-31T22:11:25;63.78;;;28.30;;
28627;SDS011;15815;46.760;19.604;2022-10-31T22:13:52;77.57;;;29.10;;
28627;SDS011;15815;46.760;19.604;2022-10-31T22:16:20;71.45;;;28.15;;
28627;SDS011;15815;46.760;19.604;2022-10-31T22:18:46;77.30;;;28.92;;
28627;SDS011;15815;46.760;19.604;2022-10-31T22:21:16;81.78;;;31.27;;
28627;SDS011;15815;46.760;19.604;2022-10-31T22:23:43;83.07;;;32.55;;
28627;SDS011;15815;46.760;19.604;2022-10-31T22:26:13;84.93;;;30.27;;
28627;SDS011;15815;46.760;19.604;2022-10-31T22:28:41;72.97;;;29.88;;
28627;SDS011;15815;46.760;19.604;2022-10-31T22:31:07;75.97;;;30.23;;
28627;SDS011;15815;46.760;19.604;2022-10-31T22:33:37;77.43;;;28.58;;
28627;SDS011;15815;46.760;19.604;2022-10-31T22:36:04;74.07;;;28.17;;
28627;SDS011;15815;46.760;19.604;2022-10-31T22:38:32;68.68;;;27.92;;
28627;SDS011;15815;46.760;19.604;2022-10-31T22:41:00;67.32;;;27.67;;
28627;SDS011;15815;46.760;19.604;2022-10-31T22:43:26;73.47;;;28.70;;
28627;SDS011;15815;46.760;19.604;2022-10-31T22:45:52;77.03;;;28.00;;
28627;SDS011;15815;46.760;19.604;2022-10-31T22:48:25;69.45;;;26.85;;
28627;SDS011;15815;46.760;19.604;2022-10-31T22:50:50;86.30;;;29.52;;
28627;SDS011;15815;46.760;19.604;2022-10-31T22:53:16;82.53;;;29.88;;
28627;SDS011;15815;46.760;19.604;2022-10-31T22:55:41;68.15;;;29.73;;
28627;SDS011;15815;46.760;19.604;2022-10-31T22:58:07;85.40;;;28.58;;
28627;SDS011;15815;46.760;19.604;2022-10-31T23:00:32;77.85;;;29.15;;
28627;SDS011;15815;46.760;19.604;2022-10-31T23:02:57;81.35;;;29.17;;
28627;SDS011;15815;46.760;19.604;2022-10-31T23:05:22;71.75;;;29.67;;
28627;SDS011;15815;46.760;19.604;2022-10-31T23:07:48;96.07;;;31.23;;
28627;SDS011;15815;46.760;19.604;2022-10-31T23:10:13;102.07;;;32.70;;
28627;SDS011;15815;46.760;19.604;2022-10-31T23:12:38;97.63;;;33.38;;
28627;SDS011;15815;46.760;19.604;2022-10-31T23:15:22;83.85;;;32.40;;
28627;SDS011;15815;46.760;19.604;2022-10-31T23:17:47;91.53;;;34.30;;
28627;SDS011;15815;46.760;19.604;2022-10-31T23:20:13;86.90;;;35.47;;
28627;SDS011;15815;46.760;19.604;2022-10-31T23:22:38;81.97;;;33.35;;
28627;SDS011;15815;46.760;19.604;2022-10-31T23:25:04;70.82;;;28.38;;
28627;SDS011;15815;46.760;19.604;2022-10-31T23:27:30;77.25;;;28.80;;
28627;SDS011;15815;46.760;19.604;2022-10-31T23:29:56;70.28;;;29.27;;
28627;SDS011;15815;46.760;19.604;2022-10-31T23:32:27;81.32;;;30.30;;
28627;SDS011;15815;46.760;19.604;2022-10-31T23:34:56;82.40;;;30.38;;
28627;SDS011;15815;46.760;19.604;2022-10-31T23:37:24;95.35;;;32.42;;
28627;SDS011;15815;46.760;19.604;2022-10-31T23:39:50;77.88;;;32.40;;
28627;SDS011;15815;46.760;19.604;2022-10-31T23:42:16;88.90;;;32.83;;
28627;SDS011;15815;46.760;19.604;2022-10-31T23:44:42;100.50;;;33.47;;
28627;SDS011;15815;46.760;19.604;2022-10-31T23:47:08;120.07;;;33.88;;
28627;SDS011;15815;46.760;19.604;2022-10-31T23:49:34;115.18;;;33.15;;
28627;SDS011;15815;46.760;19.604;2022-10-31T23:52:00;104.65;;;35.60;;
28627;SDS011;15815;46.760;19.604;2022-10-31T23:54:26;127.20;;;35.72;;
28627;SDS011;15815;46.760;19.604;2022-10-31T23:56:52;110.78;;;37.03;;
28627;SDS011;15815;46.760;19.604;2022-10-31T23:59:18;113.00;;;36.47;;
